Mato Grosso, Brazil
Current Conditions -  °F | °C
As of 8:00 PM on Wednesday 26 Nov 2014 (Local Time) from SLSI Reporting Station
Overcast Overcast  
Wind Chill: 72°   Ceiling: 1500
Heat Index: 72°   Visibility: 6mi
Dew Point: 70°   Wind: 0mph
Humidity: 94%   Direction: NA
Pressure: 29.77"   Gusts: NA
Location:  15.01°S, 59.94°W
Report Text: SLSI 262300Z 00000KT 9999 BKN015 OVC070 22/21 Q1008
Loading
Personal Weather Stations






























Interactive Weather Map New forecast layout! Learn more

10-Day Weather Forecast

Advertisements
Track Severe Weather on mobile